map of CLJ home
CLJ - Airport
Location
City:  Cluj-Napoca, Cluj, Romania
Name:Cluj International Airport
Old (Alt.):Someseni Airport
ICAO:LRCL
IATA:CLJ

Details
Type:Airport (Aerodrome, Airfield)
Use:Public/Civil, International (customs port of entry)
Latitude:4647'06"N (46.785092)
Longitude:2341'10"E (23.686119)
Elevation:1035 ft (315 m)
Variation:5.54E (WMM2015 magnetic declination)
0.11 annual change
Runways:1
Longest:6890 × 98 ft (2100 × 30 m)

Time
Time Zone:UTC+2 (DST+3)
Local Time:

Weather
METAR:LRCL 141300Z 21003KT 9999 BKN051 08/00 Q1007 R07/12//95

Related Locations
Nearby:
Farthest:CHT: 11440 mi / 18410 km
Waitangi [Tuuta], CIT, NZ

Find:

   beyond  
but within

Other Information
Maps:
NOTAMs:
Links:
Sources:

  
flag of Romania   

Sectional Chart

Flight Planning
at skyvector.com

Satellite Image

Google Maps Satellite view

 

Copyright © 2004-2017 Karl L. Swartz. All rights reserved.
The Great Circle Mapper name and logo are trademarks of the Great Circle Mapper.
All other trademarks mentioned herein belong to their respective owners.
Please see credits for attibutions and further copyright information.

  Follow gcmap on Facebook Follow gcmap on Twitter Follow gcmap on Google+ GCmap on LinkedIn

hCard Microformat

Geo Microformat